Time;durP1;ratioP1;P1;durP2;ratioP2;P2;SDS_P1;SDS_P2;PMS_P1;PMS_P2;Temp;Humidity;BMP_temperature;BMP_pressure;BME280_temperature;BME280_humidity;BME280_pressure;Samples;Min_cycle;Max_cycle;Signal;HPM_P1;HPM_P2
2022/01/12 00:00:17;;;;;;;;;;;;;;;0.50;84.33;102938.91;5014982;27;19936;-68
2022/01/12 00:02:42;;;;;;;;;;;;;;;0.50;84.50;102925.88;5035635;27;19964;-69
2022/01/12 00:05:08;;;;;;;;;;;;;;;0.48;85.09;102931.13;5031915;27;19940;-68
2022/01/12 00:07:33;;;;;;;;;;;;;;;0.48;85.00;102931.13;5033375;27;20097;-68
2022/01/12 00:09:58;;;;;;;;;;;;;;;0.53;85.50;102931.06;5031647;27;20024;-67
2022/01/12 00:12:26;;;;;;;;;;;;;;;0.65;85.02;102943.94;5036633;27;19928;-69
2022/01/12 00:14:51;;;;;;;;;;;;;;;0.59;85.12;102935.31;5032863;27;20650;-69
2022/01/12 00:17:16;;;;;;;;;;;;;;;0.54;84.99;102922.38;5031783;27;19960;-70
2022/01/12 00:19:41;;;;;;;;;;;;;;;0.59;84.86;102932.72;5033187;27;19916;-68
2022/01/12 00:22:06;;;;;;;;;;;;;;;0.59;84.86;102933.59;5035817;27;19997;-68
2022/01/12 00:25:01;;;;;;;;;;;;;;;0.72;83.58;102933.44;5033973;27;19952;-67
2022/01/12 00:35:30;;;;;;;;;;;;;;;0.51;84.13;102915.44;5016395;27;19911;-71
2022/01/12 00:37:55;;;;;;;;;;;;;;;0.51;84.23;102919.81;5015925;27;19944;-68
2022/01/12 00:40:20;;;;;;;;;;;;;;;0.38;84.24;102926.91;5023605;27;20028;-68
2022/01/12 00:42:46;;;;;;;;;;;;;;;0.36;84.89;102936.44;5030765;28;19923;-68
2022/01/12 00:45:11;;;;;;;;;;;;;;;0.27;84.76;102942.63;5033302;27;19924;-69
2022/01/12 00:47:36;;;;;;;;;;;;;;;0.24;84.95;102936.56;5030919;28;19952;-69
2022/01/12 00:50:02;;;;;;;;;;;;;;;0.19;84.66;102933.19;5032524;28;19964;-70
2022/01/12 00:52:27;;;;;;;;;;;;;;;0.23;84.75;102950.50;5034701;27;19904;-69
2022/01/12 00:54:52;;;;;;;;;;;;;;;0.26;84.14;102938.28;5030754;28;20512;-69
2022/01/12 00:57:17;;;;;;;;;;;;;;;0.16;84.60;102942.72;5009087;28;20019;-69
2022/01/12 00:59:43;;;;;;;;;;;;;;;0.08;84.41;102933.28;5033903;28;20082;-69
2022/01/12 01:02:08;;;;;;;;;;;;;;;0.09;84.37;102932.41;5031396;27;19949;-69
2022/01/12 01:04:33;;;;;;;;;;;;;;;0.06;84.84;102922.88;5035340;27;19904;-70
2022/01/12 01:06:58;;;;;;;;;;;;;;;-0.04;84.54;102937.72;5035000;27;19908;-68
2022/01/12 01:09:24;;;;;;;;;;;;;;;-0.09;85.08;102960.31;5035676;27;19907;-67
2022/01/12 01:11:49;;;;;;;;;;;;;;;0.01;84.39;102966.28;5037697;27;19900;-69
2022/01/12 01:14:32;;;;;;;;;;;;;;;-0.09;84.41;102967.25;5034842;27;20250;-68
2022/01/12 01:25:23;;;;;;;;;;;;;;;-0.10;84.48;102966.41;5035318;27;19900;-68
2022/01/12 01:25:32;;;;;;;;;;;;;;;-0.34;85.10;102954.44;5040850;27;20691;-69
2022/01/12 01:28:00;;;;;;;;;;;;;;;-0.40;85.09;102963.13;5034576;27;20005;-67
2022/01/12 01:30:26;;;;;;;;;;;;;;;-0.38;85.25;102955.31;5016422;27;19971;-68
2022/01/12 01:32:51;;;;;;;;;;;;;;;-0.40;85.13;102965.75;5036740;27;19904;-68
2022/01/12 01:35:18;;;;;;;;;;;;;;;-0.37;85.13;102978.75;5035528;27;19908;-67
2022/01/12 01:37:43;;;;;;;;;;;;;;;-0.28;85.19;102987.34;5006850;27;19907;-67
2022/01/12 01:40:08;;;;;;;;;;;;;;;-0.23;84.86;103003.78;5037825;27;19911;-66
2022/01/12 01:43:06;;;;;;;;;;;;;;;-0.30;85.32;103015.13;5032955;27;20348;-68
2022/01/12 01:53:40;;;;;;;;;;;;;;;-0.21;85.62;102994.25;5036447;27;20266;-69
2022/01/12 01:56:06;;;;;;;;;;;;;;;-0.24;85.79;102991.66;5036896;27;19908;-69
2022/01/12 01:58:31;;;;;;;;;;;;;;;-0.20;85.79;102989.03;5000347;28;20016;-68
2022/01/12 02:00:56;;;;;;;;;;;;;;;-0.24;86.15;102984.72;5015773;27;20051;-70
2022/01/12 02:03:26;;;;;;;;;;;;;;;-0.17;86.18;102995.94;5019858;27;20278;-66
2022/01/12 02:05:51;;;;;;;;;;;;;;;-0.03;86.02;103006.25;5003733;27;20074;-68
2022/01/12 02:08:16;;;;;;;;;;;;;;;0.03;85.67;103005.31;5017126;27;19903;-68
2022/01/12 02:10:41;;;;;;;;;;;;;;;-0.05;86.15;103001.03;4998470;28;20532;-68
2022/01/12 02:13:08;;;;;;;;;;;;;;;0.02;85.88;103001.00;5013046;28;19904;-67
2022/01/12 02:15:33;;;;;;;;;;;;;;;-0.05;86.15;103001.03;5018285;27;19941;-68
2022/01/12 02:37:14;;;;;;;;;;;;;;;0.24;86.43;103031.19;5029506;27;19948;-68
2022/01/12 02:39:56;;;;;;;;;;;;;;;0.22;86.49;103024.28;5029556;27;19915;-68
2022/01/12 02:42:23;;;;;;;;;;;;;;;0.23;86.51;103024.25;5035144;27;19919;-68
2022/01/12 02:55:44;;;;;;;;;;;;;;;0.36;86.86;102977.28;5075885;27;20365;-69
2022/01/12 02:58:09;;;;;;;;;;;;;;;0.33;86.66;102989.44;5075096;27;19911;-68
2022/01/12 03:01:02;;;;;;;;;;;;;;;0.45;86.29;102987.56;5060699;27;19922;-67
2022/01/12 03:03:22;;;;;;;;;;;;;;;0.47;85.71;102975.41;5061821;27;20286;-69
2022/01/12 03:05:56;;;;;;;;;;;;;;;0.41;85.75;102967.66;5058673;27;20450;-68
2022/01/12 03:08:24;;;;;;;;;;;;;;;0.42;85.97;102971.97;5026033;27;20821;-67
2022/01/12 03:10:49;;;;;;;;;;;;;;;0.37;85.50;102959.03;5037118;27;19991;-68
2022/01/12 03:13:14;;;;;;;;;;;;;;;0.39;85.69;102962.47;5054187;27;19960;-68
2022/01/12 03:15:41;;;;;;;;;;;;;;;0.37;85.95;102952.94;5038436;27;19932;-68
2022/01/12 03:18:06;;;;;;;;;;;;;;;0.49;85.61;102971.94;5053692;27;19948;-68
2022/01/12 03:20:32;;;;;;;;;;;;;;;0.52;85.12;102978.81;5041677;27;20312;-67
2022/01/12 03:22:57;;;;;;;;;;;;;;;0.40;85.24;102998.06;5034623;27;19927;-68
2022/01/12 03:25:22;;;;;;;;;;;;;;;0.34;85.22;102991.16;5056813;27;20117;-68
2022/01/12 03:27:49;;;;;;;;;;;;;;;0.36;85.42;102992.91;5054793;27;19907;-69
2022/01/12 03:30:14;;;;;;;;;;;;;;;0.37;85.19;102992.00;5056560;27;19947;-65
2022/01/12 03:32:45;;;;;;;;;;;;;;;0.40;84.86;102992.84;5042316;27;20307;-67
2022/01/12 03:35:24;;;;;;;;;;;;;;;0.32;85.01;102992.94;5078385;27;19962;-69
2022/01/12 03:38:19;;;;;;;;;;;;;;;0.34;85.53;103001.56;5056176;27;20416;-68
2022/01/12 03:40:40;;;;;;;;;;;;;;;0.45;85.00;102998.88;5053784;27;20728;-67
2022/01/12 03:43:05;;;;;;;;;;;;;;;0.30;84.80;102992.06;5056111;27;19915;-68
2022/01/12 03:45:30;;;;;;;;;;;;;;;0.24;84.93;102986.94;5018870;27;19934;-68
2022/01/12 03:47:55;;;;;;;;;;;;;;;0.22;85.42;102996.47;5039590;27;19952;-69
2022/01/12 03:50:21;;;;;;;;;;;;;;;0.15;85.49;102981.78;5075715;27;20023;-68
2022/01/12 03:52:46;;;;;;;;;;;;;;;0.19;85.59;102974.84;5074941;27;19915;-68
2022/01/12 03:55:11;;;;;;;;;;;;;;;0.22;85.51;102975.66;5042972;27;20153;-67
2022/01/12 03:57:36;;;;;;;;;;;;;;;0.20;85.63;102982.63;5075649;27;19911;-68
2022/01/12 04:00:03;;;;;;;;;;;;;;;0.23;85.89;102999.97;5021980;27;19912;-67
2022/01/12 04:02:28;;;;;;;;;;;;;;;0.32;85.05;102998.13;5034442;27;19919;-67
2022/01/12 04:05:24;;;;;;;;;;;;;;;0.36;84.97;103001.56;5036186;27;20946;-67
2022/01/12 04:10:34;;;;;;;;;;;;;;;0.52;84.90;103012.69;5058103;27;19971;-68
2022/01/12 04:13:00;;;;;;;;;;;;;;;0.52;84.59;103012.69;5038947;27;19903;-67
2022/01/12 04:15:25;;;;;;;;;;;;;;;0.49;84.81;103015.31;5055164;27;19904;-70
2022/01/12 04:17:51;;;;;;;;;;;;;;;0.53;84.86;103021.38;5056789;27;19934;-67
2022/01/12 04:20:16;;;;;;;;;;;;;;;0.54;85.03;103023.09;5037260;27;20422;-68
2022/01/12 04:25:25;;;;;;;;;;;;;;;0.62;84.87;103027.34;5054794;27;19959;-68
2022/01/12 04:27:51;;;;;;;;;;;;;;;0.65;85.01;103018.66;5035743;27;19907;-70
2022/01/12 04:30:16;;;;;;;;;;;;;;;0.66;85.51;103026.44;5055578;27;19907;-69
2022/01/12 04:32:42;;;;;;;;;;;;;;;0.63;85.52;103016.03;5058300;27;20688;-66
2022/01/12 04:35:08;;;;;;;;;;;;;;;0.71;85.61;103012.50;5034011;27;19992;-69
2022/01/12 04:37:34;;;;;;;;;;;;;;;0.67;85.87;103015.13;5042290;27;20740;-68
2022/01/12 04:39:59;;;;;;;;;;;;;;;0.67;86.08;103017.72;5052753;27;19961;-67
2022/01/12 04:42:24;;;;;;;;;;;;;;;0.72;85.33;103011.59;5057355;27;20115;-70
2022/01/12 04:44:59;;;;;;;;;;;;;;;0.73;84.74;103019.41;5033782;28;20183;-69
2022/01/12 04:47:44;;;;;;;;;;;;;;;0.78;85.59;103022.00;5035924;27;19940;-68
2022/01/12 04:50:09;;;;;;;;;;;;;;;0.77;85.29;103025.47;5037289;27;20078;-67
2022/01/12 04:52:35;;;;;;;;;;;;;;;0.78;85.55;103019.38;5021706;27;19911;-67
2022/01/12 04:55:00;;;;;;;;;;;;;;;0.77;85.72;103015.03;5057199;27;20399;-67
2022/01/12 04:57:25;;;;;;;;;;;;;;;0.76;85.58;103008.09;5053589;27;19907;-67
2022/01/12 05:00:05;;;;;;;;;;;;;;;0.83;85.51;103004.53;5055411;27;20031;-69
2022/01/12 05:08:12;;;;;;;;;;;;;;;0.82;85.08;103019.31;5036800;27;19910;-67
2022/01/12 05:13:23;;;;;;;;;;;;;;;0.93;84.27;103011.38;5033882;28;19919;-68
2022/01/12 05:15:48;;;;;;;;;;;;;;;0.96;84.04;103006.13;5038121;27;20109;-71
2022/01/12 05:18:13;;;;;;;;;;;;;;;0.96;83.53;103029.59;5034038;28;21012;-69
2022/01/12 05:20:38;;;;;;;;;;;;;;;0.97;83.59;103028.72;5031927;27;19907;-69
2022/01/12 05:23:04;;;;;;;;;;;;;;;0.96;84.58;103037.41;5036099;28;20071;-69
2022/01/12 05:25:29;;;;;;;;;;;;;;;1.02;84.42;103031.25;5035048;27;19959;-70
2022/01/12 05:27:54;;;;;;;;;;;;;;;1.01;85.15;103037.34;5017350;28;19907;-69
2022/01/12 05:30:20;;;;;;;;;;;;;;;0.96;85.29;103032.19;5031744;27;19914;-70
2022/01/12 05:32:46;;;;;;;;;;;;;;;0.86;85.42;103033.16;5032052;28;20016;-71
2022/01/12 05:35:12;;;;;;;;;;;;;;;0.87;85.87;103040.13;5014490;27;19997;-69
2022/01/12 05:37:38;;;;;;;;;;;;;;;0.93;85.92;103047.00;5035776;27;19899;-69
2022/01/12 05:40:05;;;;;;;;;;;;;;;0.98;85.68;103056.50;5036356;27;21098;-69
2022/01/12 05:42:30;;;;;;;;;;;;;;;0.89;85.99;103048.78;5031125;27;20354;-68
2022/01/12 05:44:56;;;;;;;;;;;;;;;0.91;86.04;103048.78;5038524;27;19919;-69
2022/01/12 05:49:58;;;;;;;;;;;;;;;0.92;85.38;103035.72;5060970;27;19911;-67
2022/01/12 05:52:23;;;;;;;;;;;;;;;1.00;84.83;103036.50;5023685;27;19934;-71
2022/01/12 05:54:49;;;;;;;;;;;;;;;1.02;84.94;103044.31;5062555;27;20111;-69
2022/01/12 05:57:14;;;;;;;;;;;;;;;0.95;84.87;103046.09;5057399;27;19914;-70
2022/01/12 05:59:39;;;;;;;;;;;;;;;0.99;85.17;103053.00;5061411;27;19913;-68
2022/01/12 06:02:05;;;;;;;;;;;;;;;1.02;84.89;103036.47;5031607;27;19927;-68
2022/01/12 06:04:30;;;;;;;;;;;;;;;0.96;84.93;103041.75;5055431;27;20908;-68
2022/01/12 06:06:57;;;;;;;;;;;;;;;0.99;85.06;103036.53;5041445;27;20806;-67
2022/01/12 06:09:23;;;;;;;;;;;;;;;0.97;85.15;103049.56;5054207;27;20019;-68
2022/01/12 06:11:48;;;;;;;;;;;;;;;0.99;85.27;103045.19;5036927;27;19909;-69
2022/01/12 06:14:18;;;;;;;;;;;;;;;1.01;85.27;103053.84;5058307;27;20012;-69
2022/01/12 06:16:43;;;;;;;;;;;;;;;1.01;84.81;103039.97;5059684;27;19907;-69
2022/01/12 06:19:08;;;;;;;;;;;;;;;0.96;84.97;103055.66;5033848;27;19960;-68
2022/01/12 06:21:34;;;;;;;;;;;;;;;1.02;84.69;103052.97;5038538;27;19912;-68
2022/01/12 06:23:59;;;;;;;;;;;;;;;0.95;84.68;103060.91;5036479;27;19903;-71
2022/01/12 06:26:26;;;;;;;;;;;;;;;0.99;84.51;103062.59;5037709;27;19976;-68
2022/01/12 06:29:23;;;;;;;;;;;;;;;0.95;85.08;103056.53;5058410;27;19930;-67
2022/01/12 06:31:49;;;;;;;;;;;;;;;0.94;84.93;103059.16;5052665;27;19986;-70
2022/01/12 06:34:15;;;;;;;;;;;;;;;0.93;84.79;103058.31;5055652;27;19910;-70
2022/01/12 06:36:40;;;;;;;;;;;;;;;0.91;84.78;103060.06;5058965;27;19903;-68
2022/01/12 06:39:05;;;;;;;;;;;;;;;0.96;84.72;103052.16;5056519;27;20024;-68
2022/01/12 06:41:31;;;;;;;;;;;;;;;0.96;84.96;103053.06;5056234;27;19952;-70
2022/01/12 06:43:56;;;;;;;;;;;;;;;0.91;84.70;103043.56;5059048;27;20877;-67
2022/01/12 06:46:28;;;;;;;;;;;;;;;0.88;84.06;103044.44;5024666;27;20028;-68
2022/01/12 06:48:53;;;;;;;;;;;;;;;0.84;83.83;103047.97;5019480;27;19904;-69
2022/01/12 06:51:19;;;;;;;;;;;;;;;0.81;84.13;103053.22;5013204;27;19904;-70
2022/01/12 06:53:44;;;;;;;;;;;;;;;0.80;83.86;103056.69;5015788;28;20575;-67
2022/01/12 06:56:09;;;;;;;;;;;;;;;0.82;83.95;103060.16;5012945;28;19953;-68
2022/01/12 06:58:34;;;;;;;;;;;;;;;0.77;83.98;103059.34;5017634;28;20702;-70
2022/01/12 07:01:00;;;;;;;;;;;;;;;0.79;83.85;103061.06;5013672;27;19910;-70
2022/01/12 07:03:25;;;;;;;;;;;;;;;0.85;83.91;103055.78;5056511;27;19931;-69
2022/01/12 07:05:50;;;;;;;;;;;;;;;0.83;83.61;103059.25;5048199;27;20163;-69
2022/01/12 07:08:15;;;;;;;;;;;;;;;0.88;84.22;103069.66;5037200;27;19903;-68
2022/01/12 07:10:41;;;;;;;;;;;;;;;0.97;83.78;103070.44;5031554;27;19915;-69
2022/01/12 07:13:10;;;;;;;;;;;;;;;0.84;84.28;103071.44;5034481;27;19963;-70
2022/01/12 07:15:35;;;;;;;;;;;;;;;0.85;84.31;103067.94;5031645;27;19916;-69
2022/01/12 07:18:04;;;;;;;;;;;;;;;0.86;84.46;103074.88;5016780;27;19942;-69
2022/01/12 07:20:29;;;;;;;;;;;;;;;0.84;84.45;103087.06;5031013;27;19904;-68
2022/01/12 07:22:54;;;;;;;;;;;;;;;0.84;83.90;103093.13;5034703;27;19971;-69
2022/01/12 07:25:19;;;;;;;;;;;;;;;0.90;84.20;103096.56;5037019;27;20197;-68
2022/01/12 07:27:45;;;;;;;;;;;;;;;0.94;84.44;103106.94;5033500;27;19953;-67
2022/01/12 07:30:10;;;;;;;;;;;;;;;1.09;83.62;103112.91;5030597;27;19903;-68
2022/01/12 07:32:35;;;;;;;;;;;;;;;1.22;83.53;103122.28;5039917;27;19971;-67
2022/01/12 07:35:01;;;;;;;;;;;;;;;1.27;83.38;103130.06;5036712;27;20653;-67
2022/01/12 07:37:27;;;;;;;;;;;;;;;1.27;83.33;103133.56;5012982;27;20128;-67
2022/01/12 07:39:52;;;;;;;;;;;;;;;1.25;83.69;103127.47;5033723;27;19911;-67
2022/01/12 07:42:17;;;;;;;;;;;;;;;1.23;83.85;103138.78;5029205;27;20036;-68
2022/01/12 07:44:43;;;;;;;;;;;;;;;1.21;84.01;103136.22;5025908;27;19919;-68
2022/01/12 07:47:08;;;;;;;;;;;;;;;1.21;84.40;103133.59;5056132;27;20340;-68
2022/01/12 07:49:34;;;;;;;;;;;;;;;1.19;84.25;103149.25;5033294;27;20515;-68
2022/01/12 07:52:00;;;;;;;;;;;;;;;1.20;84.76;103150.16;5035418;27;19923;-67
2022/01/12 07:54:25;;;;;;;;;;;;;;;1.22;84.47;103150.97;5018402;27;20109;-68
2022/01/12 07:56:50;;;;;;;;;;;;;;;1.26;84.71;103155.28;5034506;27;19980;-69
2022/01/12 07:59:16;;;;;;;;;;;;;;;1.26;84.32;103160.50;5033742;27;20284;-68
2022/01/12 08:01:41;;;;;;;;;;;;;;;1.23;84.67;103170.97;5051779;27;19906;-69
2022/01/12 08:04:06;;;;;;;;;;;;;;;1.31;84.71;103169.16;5018482;27;20171;-68
2022/01/12 08:06:31;;;;;;;;;;;;;;;1.30;84.62;103170.03;5052591;27;19918;-68
2022/01/12 08:08:57;;;;;;;;;;;;;;;1.42;84.24;103170.78;5017231;27;20290;-68
2022/01/12 08:11:22;;;;;;;;;;;;;;;1.54;82.53;103173.25;5032856;27;19922;-67
2022/01/12 08:13:49;;;;;;;;;;;;;;;1.59;81.11;103179.25;5036082;27;20080;-67
2022/01/12 08:16:14;;;;;;;;;;;;;;;1.60;81.50;103178.38;5000540;27;20098;-67
2022/01/12 08:18:39;;;;;;;;;;;;;;;1.60;81.79;103194.03;5014217;27;20057;-67
2022/01/12 08:21:06;;;;;;;;;;;;;;;1.67;81.24;103187.00;4997071;27;20013;-67
2022/01/12 08:23:31;;;;;;;;;;;;;;;1.78;80.86;103192.09;5028778;27;19927;-68
2022/01/12 08:25:57;;;;;;;;;;;;;;;1.83;80.88;103192.88;5034718;27;19934;-68
2022/01/12 08:28:22;;;;;;;;;;;;;;;1.83;80.51;103198.13;5031916;27;19959;-67
2022/01/12 08:30:47;;;;;;;;;;;;;;;1.76;81.26;103189.47;5034446;27;20992;-68
2022/01/12 08:33:13;;;;;;;;;;;;;;;1.79;81.47;103191.19;5019034;27;19976;-68
2022/01/12 08:35:38;;;;;;;;;;;;;;;1.75;81.72;103185.16;5037291;27;19972;-68
2022/01/12 08:38:03;;;;;;;;;;;;;;;1.76;81.58;103197.31;5056763;27;20236;-67
2022/01/12 08:40:29;;;;;;;;;;;;;;;1.79;81.91;103202.53;5033940;27;20315;-67
2022/01/12 08:42:55;;;;;;;;;;;;;;;1.75;82.88;103190.41;5033800;27;19927;-66
2022/01/12 08:45:20;;;;;;;;;;;;;;;1.78;82.59;103190.34;5029775;27;19949;-68
2022/01/12 08:47:45;;;;;;;;;;;;;;;1.86;82.47;103185.91;5033886;28;19944;-69
2022/01/12 08:50:10;;;;;;;;;;;;;;;1.86;81.96;103187.63;5029649;27;19944;-67
2022/01/12 08:52:36;;;;;;;;;;;;;;;1.92;80.73;103186.69;5034520;28;20685;-69
2022/01/12 08:55:01;;;;;;;;;;;;;;;1.95;79.97;103191.88;5013361;28;20678;-68
2022/01/12 08:57:30;;;;;;;;;;;;;;;2.00;79.61;103200.50;5032361;27;20031;-66
2022/01/12 08:59:59;;;;;;;;;;;;;;;2.06;79.07;103201.28;5033024;28;20974;-67
2022/01/12 09:02:24;;;;;;;;;;;;;;;2.14;78.69;103197.72;5028810;27;20237;-66
2022/01/12 09:04:49;;;;;;;;;;;;;;;2.25;78.15;103200.19;5015834;28;20789;-69
2022/01/12 09:07:14;;;;;;;;;;;;;;;2.30;78.31;103209.69;5033444;27;19959;-69
2022/01/12 09:09:40;;;;;;;;;;;;;;;2.34;77.28;103220.94;5000636;28;20030;-67
2022/01/12 09:12:05;;;;;;;;;;;;;;;2.36;77.24;103224.41;5029615;27;19912;-68
2022/01/12 09:14:30;;;;;;;;;;;;;;;2.42;76.76;103226.06;5015561;28;20365;-68
2022/01/12 09:16:56;;;;;;;;;;;;;;;2.46;76.77;103227.75;5028574;27;19903;-67
2022/01/12 09:19:22;;;;;;;;;;;;;;;2.51;76.73;103223.28;5032814;27;20164;-67
2022/01/12 09:21:47;;;;;;;;;;;;;;;2.47;76.97;103227.72;4998829;28;20005;-67
2022/01/12 09:24:12;;;;;;;;;;;;;;;2.50;75.85;103226.81;4999131;27;20823;-67
2022/01/12 09:26:37;;;;;;;;;;;;;;;2.56;75.82;103235.41;5000112;27;20675;-67
2022/01/12 09:29:03;;;;;;;;;;;;;;;2.63;75.63;103238.81;5036832;27;19968;-67
2022/01/12 09:31:28;;;;;;;;;;;;;;;2.54;74.82;103244.19;4999884;27;19912;-66
2022/01/12 09:33:54;;;;;;;;;;;;;;;2.55;75.85;103248.50;5014889;27;19988;-67
2022/01/12 09:36:19;;;;;;;;;;;;;;;2.63;75.23;103243.19;5026100;27;19979;-69
2022/01/12 09:38:44;;;;;;;;;;;;;;;2.52;75.02;103248.56;5032813;27;19908;-69
2022/01/12 09:41:10;;;;;;;;;;;;;;;2.47;75.17;103237.28;5034921;27;19911;-67
2022/01/12 09:43:36;;;;;;;;;;;;;;;2.56;75.44;103240.63;5007820;27;19934;-66
2022/01/12 09:46:02;;;;;;;;;;;;;;;2.61;75.77;103251.03;5028118;27;19919;-66
2022/01/12 09:48:33;;;;;;;;;;;;;;;2.62;75.40;103252.75;5034969;27;20331;-66
2022/01/12 09:51:01;;;;;;;;;;;;;;;2.62;74.67;103259.75;5035622;27;20401;-67
2022/01/12 09:53:28;;;;;;;;;;;;;;;2.63;76.06;103259.72;5038378;27;20400;-67
2022/01/12 09:55:53;;;;;;;;;;;;;;;2.55;75.21;103258.97;5038841;27;20312;-66
2022/01/12 09:58:19;;;;;;;;;;;;;;;2.49;74.49;103262.53;5016435;27;20302;-66
2022/01/12 10:00:54;;;;;;;;;;;;;;;2.54;74.23;103259.88;5019157;27;20675;-66
2022/01/12 10:03:20;;;;;;;;;;;;;;;2.53;74.60;103253.75;5037822;27;20014;-66
2022/01/12 10:05:45;;;;;;;;;;;;;;;2.53;74.61;103264.22;5015572;27;19911;-67
2022/01/12 10:08:14;;;;;;;;;;;;;;;2.48;74.48;103258.22;5036928;27;19907;-67
2022/01/12 10:10:40;;;;;;;;;;;;;;;2.46;75.04;103251.28;5031733;27;20085;-67
2022/01/12 10:13:15;;;;;;;;;;;;;;;2.54;75.46;103257.25;5019597;27;19910;-66
2022/01/12 10:15:40;;;;;;;;;;;;;;;2.61;75.66;103251.03;5014955;27;19922;-68
2022/01/12 10:18:05;;;;;;;;;;;;;;;2.66;76.13;103246.59;5040870;27;19944;-66
2022/01/12 10:20:32;;;;;;;;;;;;;;;2.63;75.43;103245.78;5016745;27;19911;-67
2022/01/12 10:22:57;;;;;;;;;;;;;;;2.64;75.02;103245.75;5015641;27;19919;-67
2022/01/12 10:25:22;;;;;;;;;;;;;;;2.73;75.09;103239.53;5018630;27;20581;-67
2022/01/12 10:27:48;;;;;;;;;;;;;;;2.74;74.77;103241.25;5034254;27;19908;-67
2022/01/12 10:30:23;;;;;;;;;;;;;;;2.66;74.95;103233.53;5000973;27;20460;-66
2022/01/12 10:33:00;;;;;;;;;;;;;;;2.81;75.85;103242.03;4999101;27;20706;-66
2022/01/12 10:35:26;;;;;;;;;;;;;;;2.80;74.83;103240.28;5036889;27;19968;-67
2022/01/12 10:37:52;;;;;;;;;;;;;;;2.85;74.86;103239.34;5038191;27;19952;-66
2022/01/12 10:40:17;;;;;;;;;;;;;;;2.78;74.06;103234.22;5016814;27;19907;-66
2022/01/12 10:42:44;;;;;;;;;;;;;;;2.89;74.67;103241.00;5005347;27;19931;-69
2022/01/12 10:45:09;;;;;;;;;;;;;;;2.82;74.49;103230.66;5041252;27;20019;-69
2022/01/12 10:47:34;;;;;;;;;;;;;;;2.89;74.36;103237.50;5040613;27;20455;-67
2022/01/12 10:50:00;;;;;;;;;;;;;;;2.86;74.27;103235.84;5033519;27;19912;-68
2022/01/12 10:52:26;;;;;;;;;;;;;;;2.94;74.40;103247.91;5056729;27;19903;-67
2022/01/12 10:54:58;;;;;;;;;;;;;;;3.05;74.26;103244.22;5041174;27;19918;-67
2022/01/12 10:57:24;;;;;;;;;;;;;;;3.08;73.61;103246.78;5055627;27;19903;-67
2022/01/12 11:00:05;;;;;;;;;;;;;;;3.11;73.47;103258.09;5060115;27;19917;-66
2022/01/12 11:02:30;;;;;;;;;;;;;;;3.04;73.34;103252.09;5034784;27;19974;-69
2022/01/12 11:04:58;;;;;;;;;;;;;;;3.06;73.66;103250.31;5036956;27;20553;-68
2022/01/12 11:07:24;;;;;;;;;;;;;;;3.15;73.37;103244.94;5055964;27;19910;-68
2022/01/12 11:09:50;;;;;;;;;;;;;;;3.14;73.36;103255.44;5035501;27;19908;-67
2022/01/12 11:12:15;;;;;;;;;;;;;;;3.14;73.41;103245.81;5035661;27;19953;-68
2022/01/12 11:14:40;;;;;;;;;;;;;;;3.12;73.54;103251.97;5023302;27;19944;-66
2022/01/12 11:17:06;;;;;;;;;;;;;;;3.07;73.74;103249.44;5056478;27;20001;-67
2022/01/12 11:19:31;;;;;;;;;;;;;;;3.13;73.93;103253.69;5021086;27;20216;-66
2022/01/12 11:22:02;;;;;;;;;;;;;;;3.15;73.70;103260.63;5056069;27;19946;-68
2022/01/12 11:24:28;;;;;;;;;;;;;;;3.27;74.01;103259.53;5019689;27;20008;-65
2022/01/12 11:26:54;;;;;;;;;;;;;;;3.31;74.35;103257.75;5036614;27;19914;-68
2022/01/12 11:29:29;;;;;;;;;;;;;;;3.38;74.19;103262.84;5034972;27;20857;-67
2022/01/12 11:32:24;;;;;;;;;;;;;;;3.37;74.07;103258.50;5040294;27;20177;-66
2022/01/12 11:34:59;;;;;;;;;;;;;;;3.47;73.82;103259.22;5009682;27;20331;-69
2022/01/12 11:37:25;;;;;;;;;;;;;;;3.49;74.16;103270.50;5051176;27;19911;-70
2022/01/12 11:39:50;;;;;;;;;;;;;;;3.52;74.30;103272.19;5058050;27;19910;-69
2022/01/12 11:42:17;;;;;;;;;;;;;;;3.63;74.54;103262.38;5044477;27;19934;-69
2022/01/12 11:44:42;;;;;;;;;;;;;;;3.55;75.19;103266.91;5044150;27;19924;-67
2022/01/12 11:47:11;;;;;;;;;;;;;;;3.57;75.58;103260.75;5048467;27;19922;-67
2022/01/12 11:49:36;;;;;;;;;;;;;;;3.59;75.90;103263.34;5065209;27;19922;-66
2022/01/12 11:52:15;;;;;;;;;;;;;;;3.63;75.79;103265.00;5064768;27;19931;-69
2022/01/12 11:54:44;;;;;;;;;;;;;;;3.63;75.73;103262.38;5030058;27;19903;-67
2022/01/12 11:57:11;;;;;;;;;;;;;;;3.64;76.74;103256.28;5025432;27;19971;-67
2022/01/12 11:59:56;;;;;;;;;;;;;;;3.66;76.79;103258.84;5009616;27;19915;-69
2022/01/12 12:02:30;;;;;;;;;;;;;;;3.66;76.95;103254.47;5044829;27;19939;-67
2022/01/12 12:04:56;;;;;;;;;;;;;;;3.68;77.08;103255.31;5027036;27;19907;-67
2022/01/12 12:07:23;;;;;;;;;;;;;;;3.68;77.31;103271.03;5036547;27;19915;-67
2022/01/12 12:09:53;;;;;;;;;;;;;;;3.67;77.74;103260.59;5047530;27;19911;-66
2022/01/12 12:12:19;;;;;;;;;;;;;;;3.69;77.20;103267.50;5045971;27;19963;-67
2022/01/12 12:14:45;;;;;;;;;;;;;;;3.74;77.53;103267.44;5065310;27;19911;-68
2022/01/12 12:17:10;;;;;;;;;;;;;;;3.87;77.37;103270.66;5046289;27;20803;-68
2022/01/12 12:19:37;;;;;;;;;;;;;;;3.90;76.90;103273.22;5058591;27;20000;-68
2022/01/12 12:22:27;;;;;;;;;;;;;;;3.89;76.38;103266.25;5030261;27;20377;-68
2022/01/12 12:24:53;;;;;;;;;;;;;;;3.83;76.37;103262.00;5061544;27;19907;-68
2022/01/12 12:27:19;;;;;;;;;;;;;;;3.79;76.87;103260.31;5061849;27;19918;-68
2022/01/12 12:29:48;;;;;;;;;;;;;;;3.79;77.54;103257.72;5070284;27;20272;-69
2022/01/12 12:32:13;;;;;;;;;;;;;;;3.82;77.72;103256.78;5043740;27;20193;-69
2022/01/12 12:34:39;;;;;;;;;;;;;;;3.78;77.95;103242.91;5042714;27;20787;-69
2022/01/12 12:37:06;;;;;;;;;;;;;;;3.68;78.12;103247.47;5048284;27;19907;-68
2022/01/12 12:39:32;;;;;;;;;;;;;;;3.65;78.64;103247.50;5043743;27;20553;-68
2022/01/12 12:41:58;;;;;;;;;;;;;;;3.73;78.48;103245.59;5027543;27;20036;-67
2022/01/12 12:44:24;;;;;;;;;;;;;;;3.73;78.40;103250.84;5062401;27;19907;-67
2022/01/12 12:46:49;;;;;;;;;;;;;;;3.76;78.48;103245.53;5047154;27;19933;-67
2022/01/12 12:49:14;;;;;;;;;;;;;;;3.84;78.33;103242.78;5028082;27;19911;-68
2022/01/12 12:51:40;;;;;;;;;;;;;;;3.86;78.53;103242.75;5043002;27;19908;-68
2022/01/12 12:54:05;;;;;;;;;;;;;;;3.95;78.43;103253.91;5023577;27;19915;-68
2022/01/12 12:56:39;;;;;;;;;;;;;;;3.95;78.22;103250.41;5066924;27;20339;-70
2022/01/12 12:59:05;;;;;;;;;;;;;;;3.85;78.75;103249.75;5047022;27;20768;-66
2022/01/12 13:01:30;;;;;;;;;;;;;;;3.89;78.54;103247.91;5046831;27;20008;-67
2022/01/12 13:03:57;;;;;;;;;;;;;;;3.85;78.84;103256.72;5049065;27;19919;-67
2022/01/12 13:06:27;;;;;;;;;;;;;;;3.90;78.84;103260.97;5050148;27;20016;-66
2022/01/12 13:08:53;;;;;;;;;;;;;;;3.90;79.10;103265.34;5040991;27;20385;-68
2022/01/12 13:11:18;;;;;;;;;;;;;;;3.97;78.87;103256.47;5049109;27;19907;-68
2022/01/12 13:13:43;;;;;;;;;;;;;;;4.08;78.76;103251.88;5050872;27;19910;-68
2022/01/12 13:16:10;;;;;;;;;;;;;;;4.05;78.09;103257.19;5032449;27;19907;-67
2022/01/12 13:18:40;;;;;;;;;;;;;;;4.09;78.38;103253.59;5066741;27;19911;-68
2022/01/12 13:21:09;;;;;;;;;;;;;;;3.99;78.09;103262.56;5064704;27;19911;-68
2022/01/12 13:23:47;;;;;;;;;;;;;;;3.96;78.97;103259.97;5065828;27;19964;-69
2022/01/12 13:26:15;;;;;;;;;;;;;;;3.94;78.88;103254.78;5046969;27;19934;-67
2022/01/12 13:28:42;;;;;;;;;;;;;;;3.91;79.39;103256.63;5047860;27;19899;-69
2022/01/12 13:31:08;;;;;;;;;;;;;;;3.86;78.98;103256.69;5027199;27;19968;-68
2022/01/12 13:33:34;;;;;;;;;;;;;;;3.86;79.00;103248.81;5048883;27;19904;-67
2022/01/12 13:36:19;;;;;;;;;;;;;;;3.93;78.69;103249.56;5028863;27;20358;-68
2022/01/12 13:38:48;;;;;;;;;;;;;;;3.94;79.26;103248.69;5063620;27;19903;-69
2022/01/12 13:41:15;;;;;;;;;;;;;;;3.99;79.54;103257.31;5067014;27;19970;-68
2022/01/12 13:43:43;;;;;;;;;;;;;;;3.95;79.22;103263.53;5070117;27;20145;-68
2022/01/12 13:46:13;;;;;;;;;;;;;;;3.83;79.32;103261.13;5024475;27;20842;-67
2022/01/12 13:48:41;;;;;;;;;;;;;;;3.81;79.76;103262.91;5031944;27;20130;-68
2022/01/12 13:51:06;;;;;;;;;;;;;;;3.77;79.67;103256.88;5018324;27;20157;-67
2022/01/12 13:53:38;;;;;;;;;;;;;;;3.80;80.38;103255.97;5045454;27;19949;-68